Time;durP1;ratioP1;P1;durP2;ratioP2;P2;SDS_P1;SDS_P2;PMS_P1;PMS_P2;Temp;Humidity;BMP_temperature;BMP_pressure;BME280_temperature;BME280_humidity;BME280_pressure;Samples;Min_cycle;Max_cycle;Signal;HPM_P1;HPM_P2
2022/03/13 00:02:03;;;;;;;1999.90;999.90;;;10.30;99.90;;;;;;5092233;28;20482;-70
2022/03/13 00:04:29;;;;;;;1999.90;999.90;;;10.30;99.90;;;;;;5091879;28;20443;-71
2022/03/13 00:06:56;;;;;;;1999.90;999.90;;;10.20;99.90;;;;;;5092052;28;20452;-70
2022/03/13 00:09:22;;;;;;;1999.90;999.90;;;10.20;99.90;;;;;;5092084;28;20165;-70
2022/03/13 00:11:53;;;;;;;1999.90;999.90;;;10.10;99.90;;;;;;5092033;28;20924;-71
2022/03/13 00:14:24;;;;;;;1999.90;999.90;;;10.10;99.90;;;;;;5091755;28;20418;-71
2022/03/13 00:16:50;;;;;;;1999.90;999.90;;;10.10;99.90;;;;;;5091958;28;20801;-70
2022/03/13 00:19:18;;;;;;;1999.90;999.90;;;10.00;99.90;;;;;;5107727;28;20506;-71
2022/03/13 00:21:50;;;;;;;1999.90;999.90;;;10.00;99.90;;;;;;5091910;28;20489;-70
2022/03/13 00:24:20;;;;;;;1999.90;999.90;;;10.00;99.90;;;;;;5091740;28;20940;-71
2022/03/13 00:26:51;;;;;;;1999.90;999.90;;;9.90;99.90;;;;;;5091878;28;20423;-71
2022/03/13 00:29:18;;;;;;;1999.90;999.90;;;9.90;99.90;;;;;;5092003;28;20407;-71
2022/03/13 00:31:44;;;;;;;1999.90;999.90;;;9.80;99.90;;;;;;5091865;28;20409;-71
2022/03/13 00:34:10;;;;;;;1999.90;999.90;;;9.90;99.90;;;;;;5091609;28;20858;-71
2022/03/13 00:36:35;;;;;;;1999.90;999.90;;;9.70;99.90;;;;;;5092433;28;20861;-71
2022/03/13 00:39:01;;;;;;;1999.90;999.90;;;9.70;99.90;;;;;;5093367;28;20408;-72
2022/03/13 00:41:27;;;;;;;1999.90;999.90;;;9.60;99.90;;;;;;5092209;28;20193;-70
2022/03/13 00:43:52;;;;;;;1999.90;999.90;;;9.60;99.90;;;;;;5092680;28;20814;-70
2022/03/13 00:46:18;;;;;;;1999.90;999.90;;;9.50;99.90;;;;;;5092674;28;20193;-72
2022/03/13 00:48:44;;;;;;;1999.90;999.90;;;9.60;99.90;;;;;;5092933;28;20617;-72
2022/03/13 00:51:10;;;;;;;1999.90;999.90;;;9.50;99.90;;;;;;5094557;28;20170;-72
2022/03/13 00:53:37;;;;;;;1999.90;999.90;;;9.50;99.90;;;;;;5095855;28;20183;-72
2022/03/13 00:56:04;;;;;;;1999.90;999.90;;;9.40;99.90;;;;;;5095176;28;20513;-71
2022/03/13 00:58:30;;;;;;;1999.90;999.90;;;9.40;99.90;;;;;;5095355;28;20804;-72
2022/03/13 01:00:55;;;;;;;1999.90;999.90;;;9.30;99.90;;;;;;5096035;28;20485;-72
2022/03/13 01:03:36;;;;;;;1999.90;999.90;;;9.20;99.90;;;;;;5099476;28;20417;-72
2022/03/13 01:06:06;;;;;;;1999.90;999.90;;;9.20;99.90;;;;;;5098328;28;20402;-72
2022/03/13 01:08:33;;;;;;;1999.90;999.90;;;9.10;99.90;;;;;;5096997;28;20411;-71
2022/03/13 01:11:00;;;;;;;1999.90;999.90;;;9.10;99.90;;;;;;5095760;28;20413;-71
2022/03/13 01:13:27;;;;;;;1999.90;999.90;;;9.00;99.90;;;;;;5095280;28;20416;-71
2022/03/13 01:16:19;;;;;;;1999.90;999.90;;;9.10;99.90;;;;;;5094935;28;20414;-71
2022/03/13 01:18:58;;;;;;;1999.90;999.90;;;9.20;99.90;;;;;;5087523;28;20454;-70
2022/03/13 01:21:24;;;;;;;1999.90;999.90;;;9.20;99.90;;;;;;5095007;28;20818;-70
2022/03/13 01:24:01;;;;;;;1999.90;999.90;;;9.10;99.90;;;;;;5095055;28;20404;-70
2022/03/13 01:26:34;;;;;;;1999.90;999.90;;;9.10;99.90;;;;;;5095917;28;20424;-72
2022/03/13 01:29:03;;;;;;;1999.90;999.90;;;9.10;99.90;;;;;;5095984;28;20468;-71
2022/03/13 01:31:30;;;;;;;1999.90;999.90;;;9.00;99.90;;;;;;5095851;28;20425;-72
2022/03/13 01:33:56;;;;;;;1999.90;999.90;;;9.10;99.90;;;;;;5095899;28;20408;-71
2022/03/13 01:36:22;;;;;;;1999.90;999.90;;;9.00;99.90;;;;;;5095892;28;20795;-71
2022/03/13 01:38:52;;;;;;;1999.90;999.90;;;9.00;99.90;;;;;;5096625;28;20416;-72
2022/03/13 01:41:17;;;;;;;1999.90;999.90;;;8.90;99.90;;;;;;5095903;28;20449;-71
2022/03/13 01:43:43;;;;;;;1999.90;999.90;;;8.90;99.90;;;;;;5095756;28;20395;-72
2022/03/13 01:46:09;;;;;;;1999.90;999.90;;;8.80;99.90;;;;;;5094386;28;20164;-71
2022/03/13 01:48:39;;;;;;;1999.90;999.90;;;8.80;99.90;;;;;;5094523;28;20836;-70
2022/03/13 01:51:08;;;;;;;1999.90;999.90;;;8.80;99.90;;;;;;5094801;28;20735;-71
2022/03/13 01:53:34;;;;;;;1999.90;999.90;;;8.70;99.90;;;;;;5094419;28;20401;-71
2022/03/13 01:56:00;;;;;;;1999.90;999.90;;;8.60;99.90;;;;;;5094142;28;20407;-72
2022/03/13 01:58:26;;;;;;;1999.90;999.90;;;8.50;99.90;;;;;;5095236;28;20435;-71
2022/03/13 02:00:51;;;;;;;1999.90;999.90;;;8.50;99.90;;;;;;5095729;28;20204;-71
2022/03/13 02:03:17;;;;;;;1999.90;999.90;;;8.50;99.90;;;;;;5094774;28;20200;-70
2022/03/13 02:05:43;;;;;;;1999.90;999.90;;;8.40;99.90;;;;;;5093968;28;20232;-70
2022/03/13 02:08:16;;;;;;;1999.90;999.90;;;8.30;99.90;;;;;;5094118;28;20427;-70
2022/03/13 02:10:42;;;;;;;1999.90;999.90;;;8.20;99.90;;;;;;5094159;28;20398;-71
2022/03/13 02:13:10;;;;;;;1999.90;999.90;;;8.20;99.90;;;;;;5093649;28;20402;-70
2022/03/13 02:15:37;;;;;;;1999.90;999.90;;;8.10;99.90;;;;;;5093737;28;20932;-71
2022/03/13 02:18:03;;;;;;;1999.90;999.90;;;8.10;99.90;;;;;;5094081;28;20523;-71
2022/03/13 02:20:29;;;;;;;1999.90;999.90;;;8.10;99.90;;;;;;5093936;28;20445;-72
2022/03/13 02:23:02;;;;;;;1999.90;999.90;;;8.00;99.90;;;;;;5093929;28;20408;-70
2022/03/13 02:25:34;;;;;;;1999.90;999.90;;;7.90;99.90;;;;;;5093587;28;20158;-71
2022/03/13 02:28:00;;;;;;;1999.90;999.90;;;7.80;99.90;;;;;;5093891;28;20939;-70
2022/03/13 02:30:26;;;;;;;1999.90;999.90;;;7.70;99.90;;;;;;5093770;28;20414;-70
2022/03/13 02:32:53;;;;;;;1999.90;999.90;;;7.70;99.90;;;;;;5093695;28;20917;-70
2022/03/13 02:35:18;;;;;;;1999.90;999.90;;;7.50;99.90;;;;;;5093454;28;20489;-70
2022/03/13 02:37:44;;;;;;;1999.90;999.90;;;7.50;99.90;;;;;;5093479;28;20553;-70
2022/03/13 02:40:30;;;;;;;1999.90;999.90;;;7.50;99.90;;;;;;5093504;28;20194;-70
2022/03/13 02:42:56;;;;;;;1999.90;999.90;;;7.50;99.90;;;;;;5093178;28;20191;-70
2022/03/13 02:45:36;;;;;;;1999.90;999.90;;;7.40;99.90;;;;;;5093221;28;20396;-71
2022/03/13 02:48:03;;;;;;;1999.90;999.90;;;7.40;99.90;;;;;;5093413;28;20420;-70
2022/03/13 02:50:29;;;;;;;1999.90;999.90;;;7.40;99.90;;;;;;5093332;28;20407;-71
2022/03/13 02:52:55;;;;;;;1999.90;999.90;;;7.40;99.90;;;;;;5093312;28;20554;-71
2022/03/13 02:55:20;;;;;;;1999.90;999.90;;;7.30;99.90;;;;;;5093034;28;20257;-71
2022/03/13 02:57:46;;;;;;;1999.90;999.90;;;7.30;99.90;;;;;;5093156;28;20265;-71
2022/03/13 03:00:14;;;;;;;1999.90;999.90;;;7.30;99.90;;;;;;5093144;28;20194;-71
2022/03/13 03:02:39;;;;;;;1999.90;999.90;;;7.30;99.90;;;;;;5093161;28;20245;-71
2022/03/13 03:05:07;;;;;;;1999.90;999.90;;;7.30;99.90;;;;;;5092795;28;20428;-71
2022/03/13 03:07:34;;;;;;;1999.90;999.90;;;7.40;99.90;;;;;;5092951;28;20189;-70
2022/03/13 03:10:00;;;;;;;1999.90;999.90;;;7.50;99.90;;;;;;5093055;28;20405;-71
2022/03/13 03:12:27;;;;;;;1999.90;999.90;;;7.60;99.90;;;;;;5093014;28;20817;-71
2022/03/13 03:14:52;;;;;;;1999.90;999.90;;;7.60;99.90;;;;;;5092615;28;20500;-71
2022/03/13 03:17:18;;;;;;;1999.90;999.90;;;7.70;99.90;;;;;;5092801;28;20950;-70
2022/03/13 03:19:44;;;;;;;1999.90;999.90;;;7.60;99.90;;;;;;5093095;28;20166;-72
2022/03/13 03:22:09;;;;;;;1999.90;999.90;;;7.60;99.90;;;;;;5093266;28;20196;-72
2022/03/13 03:24:35;;;;;;;1999.90;999.90;;;7.50;99.90;;;;;;5092255;28;20596;-71
2022/03/13 03:27:01;;;;;;;1999.90;999.90;;;7.40;99.90;;;;;;5093254;28;20250;-71
2022/03/13 03:29:28;;;;;;;1999.90;999.90;;;7.40;99.90;;;;;;5093332;28;20246;-71
2022/03/13 03:31:55;;;;;;;1999.90;999.90;;;7.40;99.90;;;;;;5093181;28;20167;-71
2022/03/13 03:34:24;;;;;;;1999.90;999.90;;;7.50;99.90;;;;;;5093174;28;20951;-71
2022/03/13 03:36:55;;;;;;;1999.90;999.90;;;7.50;99.90;;;;;;5092951;28;20863;-72
2022/03/13 03:39:22;;;;;;;1999.90;999.90;;;7.50;99.90;;;;;;5093168;28;20401;-71
2022/03/13 03:41:50;;;;;;;1999.90;999.90;;;7.60;99.90;;;;;;5093175;28;20904;-72
2022/03/13 03:44:16;;;;;;;1999.90;999.90;;;7.60;99.90;;;;;;5092799;28;20405;-71
2022/03/13 03:46:44;;;;;;;1999.90;999.90;;;7.60;99.90;;;;;;5093119;28;20425;-72
2022/03/13 03:49:10;;;;;;;1999.90;999.90;;;7.60;99.90;;;;;;5092762;28;20401;-71
2022/03/13 03:51:36;;;;;;;1999.90;999.90;;;7.70;99.90;;;;;;5092858;28;20412;-71
2022/03/13 03:54:03;;;;;;;1999.90;999.90;;;7.70;99.90;;;;;;5092576;28;20416;-70
2022/03/13 03:56:29;;;;;;;1999.90;999.90;;;7.70;99.90;;;;;;5092572;28;20453;-70
2022/03/13 03:58:55;;;;;;;1999.90;999.90;;;7.70;99.90;;;;;;5092772;28;20510;-72
2022/03/13 04:01:21;;;;;;;1999.90;999.90;;;7.60;99.90;;;;;;5092500;28;20628;-72
2022/03/13 04:03:46;;;;;;;1999.90;999.90;;;7.40;99.90;;;;;;5092741;28;20484;-72
2022/03/13 04:06:12;;;;;;;1999.90;999.90;;;7.40;99.90;;;;;;5092828;28;20616;-71
2022/03/13 04:08:38;;;;;;;1999.90;999.90;;;7.50;99.90;;;;;;5092981;28;20212;-72
2022/03/13 04:11:03;;;;;;;1999.90;999.90;;;7.60;99.90;;;;;;5092752;28;20518;-70
2022/03/13 04:13:29;;;;;;;1999.90;999.90;;;7.60;99.90;;;;;;5092130;28;20637;-70
2022/03/13 04:15:57;;;;;;;1999.90;999.90;;;7.60;99.90;;;;;;5091688;28;20167;-71
2022/03/13 04:18:23;;;;;;;1999.90;999.90;;;7.70;99.90;;;;;;5092493;28;20196;-71
2022/03/13 04:20:49;;;;;;;1999.90;999.90;;;7.70;99.90;;;;;;5092404;28;20890;-72
2022/03/13 04:23:14;;;;;;;1999.90;999.90;;;7.70;99.90;;;;;;5092117;28;20170;-71
2022/03/13 04:25:40;;;;;;;1999.90;999.90;;;7.70;99.90;;;;;;5091720;28;20166;-71
2022/03/13 04:28:09;;;;;;;1999.90;999.90;;;7.70;99.90;;;;;;5091859;28;20195;-71
2022/03/13 04:30:37;;;;;;;1999.90;999.90;;;7.60;99.90;;;;;;5091832;28;20251;-71
2022/03/13 04:33:03;;;;;;;1999.90;999.90;;;7.70;99.90;;;;;;5091869;28;20980;-71
2022/03/13 04:35:29;;;;;;;1999.90;999.90;;;7.70;99.90;;;;;;5093247;28;20407;-70
2022/03/13 04:37:54;;;;;;;1999.90;999.90;;;7.70;99.90;;;;;;5095715;28;20674;-70
2022/03/13 04:40:20;;;;;;;1999.90;999.90;;;7.80;99.90;;;;;;5096172;22;20237;-73
2022/03/13 04:42:46;;;;;;;1999.90;999.90;;;7.80;99.90;;;;;;5058167;28;20618;-74
2022/03/13 04:45:12;;;;;;;1999.90;999.90;;;7.90;99.90;;;;;;5056152;28;20229;-74
2022/03/13 04:47:38;;;;;;;1999.90;999.90;;;7.90;99.90;;;;;;5056188;28;20237;-74
2022/03/13 04:50:04;;;;;;;1999.90;999.90;;;7.90;99.90;;;;;;5045349;28;20421;-74
2022/03/13 04:52:30;;;;;;;1999.90;999.90;;;7.90;99.90;;;;;;5042708;28;20467;-74
2022/03/13 04:54:55;;;;;;;1999.90;999.90;;;8.00;99.90;;;;;;5035692;28;20892;-74
2022/03/13 04:57:21;;;;;;;1999.90;999.90;;;8.00;99.90;;;;;;5036558;28;20176;-74
2022/03/13 04:59:47;;;;;;;1999.90;999.90;;;8.00;99.90;;;;;;5035832;28;20199;-73
2022/03/13 05:02:12;;;;;;;1999.90;999.90;;;8.10;99.90;;;;;;5036226;28;20170;-73
2022/03/13 05:04:38;;;;;;;1999.90;999.90;;;8.10;99.90;;;;;;5035890;28;20161;-74
2022/03/13 05:07:06;;;;;;;1999.90;999.90;;;8.10;99.90;;;;;;5040012;28;20229;-73
2022/03/13 05:09:32;;;;;;;1999.90;999.90;;;8.10;99.90;;;;;;5031488;28;20190;-73
2022/03/13 05:12:00;;;;;;;1999.90;999.90;;;8.20;99.90;;;;;;5031881;28;20923;-73
2022/03/13 05:14:26;;;;;;;1999.90;999.90;;;8.20;99.90;;;;;;5031808;28;20442;-73
2022/03/13 05:16:52;;;;;;;1999.90;999.90;;;8.20;99.90;;;;;;5048782;28;20411;-73
2022/03/13 05:19:17;;;;;;;1999.90;999.90;;;8.20;99.90;;;;;;5048779;28;20196;-73
2022/03/13 05:21:43;;;;;;;1999.90;999.90;;;8.10;99.90;;;;;;5043761;28;20209;-73
2022/03/13 05:24:09;;;;;;;1999.90;999.90;;;8.10;99.90;;;;;;5034747;28;20176;-74
2022/03/13 05:26:34;;;;;;;1999.90;999.90;;;8.00;99.90;;;;;;5034849;28;20208;-74
2022/03/13 05:29:00;;;;;;;1999.90;999.90;;;8.00;99.90;;;;;;5046848;28;20179;-73
2022/03/13 05:31:26;;;;;;;1999.90;999.90;;;8.00;99.90;;;;;;5047888;28;20210;-74
2022/03/13 05:33:52;;;;;;;1999.90;999.90;;;7.90;99.90;;;;;;5034704;28;20436;-74
2022/03/13 05:36:17;;;;;;;1999.90;999.90;;;7.90;99.90;;;;;;5034692;28;20199;-74
2022/03/13 05:38:43;;;;;;;1999.90;999.90;;;7.90;99.90;;;;;;5039991;28;20422;-73
2022/03/13 05:41:10;;;;;;;1999.90;999.90;;;7.90;99.90;;;;;;5048592;28;20237;-73
2022/03/13 05:43:35;;;;;;;1999.90;999.90;;;7.90;99.90;;;;;;5049164;28;20164;-73
2022/03/13 05:46:01;;;;;;;1999.90;999.90;;;7.90;99.90;;;;;;5042333;28;20941;-74
2022/03/13 05:48:28;;;;;;;1999.90;999.90;;;7.90;99.90;;;;;;5033762;28;20184;-74
2022/03/13 05:50:53;;;;;;;1999.90;999.90;;;8.00;99.90;;;;;;5034373;28;20275;-73
2022/03/13 05:53:19;;;;;;;1999.90;999.90;;;7.90;99.90;;;;;;5034673;28;20908;-74
2022/03/13 05:55:44;;;;;;;1999.90;999.90;;;8.00;99.90;;;;;;5041969;28;20182;-73
2022/03/13 05:58:13;;;;;;;1999.90;999.90;;;8.00;99.90;;;;;;5035436;28;20196;-73
2022/03/13 06:00:39;;;;;;;1999.90;999.90;;;8.00;99.90;;;;;;5051590;28;20211;-73
2022/03/13 06:03:06;;;;;;;1999.90;999.90;;;8.00;99.90;;;;;;5052886;28;20404;-73
2022/03/13 06:05:35;;;;;;;1999.90;999.90;;;8.10;99.90;;;;;;5052317;28;20412;-73
2022/03/13 06:08:03;;;;;;;1999.90;999.90;;;8.10;99.90;;;;;;5048156;28;20404;-72
2022/03/13 06:10:29;;;;;;;1999.90;999.90;;;8.10;99.90;;;;;;5034080;28;20523;-73
2022/03/13 06:12:54;;;;;;;1999.90;999.90;;;8.10;99.90;;;;;;5034000;28;20412;-73
2022/03/13 06:15:20;;;;;;;1999.90;999.90;;;8.20;99.90;;;;;;5034182;28;20480;-70
2022/03/13 06:17:48;;;;;;;1999.90;999.90;;;8.20;99.90;;;;;;5016299;28;20178;-73
2022/03/13 06:20:16;;;;;;;1999.90;999.90;;;8.20;99.90;;;;;;5034220;28;20191;-73
2022/03/13 06:22:43;;;;;;;1999.90;999.90;;;8.30;99.90;;;;;;5034507;28;20924;-73
2022/03/13 06:25:11;;;;;;;1999.90;999.90;;;8.30;99.90;;;;;;5034053;28;20437;-73
2022/03/13 06:27:37;;;;;;;1999.90;999.90;;;8.30;99.90;;;;;;5034178;28;20475;-73
2022/03/13 06:30:12;;;;;;;1999.90;999.90;;;8.30;99.90;;;;;;5033730;28;20462;-73
2022/03/13 06:32:37;;;;;;;1999.90;999.90;;;8.30;99.90;;;;;;5033865;28;20423;-73
2022/03/13 06:35:04;;;;;;;1999.90;999.90;;;8.30;99.90;;;;;;5033794;28;20770;-73
2022/03/13 06:37:29;;;;;;;1999.90;999.90;;;8.30;99.90;;;;;;5033750;28;20170;-73
2022/03/13 06:39:55;;;;;;;1999.90;999.90;;;8.30;99.90;;;;;;5033573;28;20458;-73
2022/03/13 06:42:20;;;;;;;1999.90;999.90;;;8.30;99.90;;;;;;5033419;28;20170;-73
2022/03/13 06:44:46;;;;;;;1999.90;999.90;;;8.30;99.90;;;;;;5033119;28;20169;-73
2022/03/13 06:47:11;;;;;;;1999.90;999.90;;;8.30;99.90;;;;;;5033493;28;20170;-73
2022/03/13 06:49:37;;;;;;;1999.90;999.90;;;8.30;99.90;;;;;;5034365;28;20217;-73
2022/03/13 06:52:03;;;;;;;1999.90;999.90;;;8.30;99.90;;;;;;5046413;28;20446;-73
2022/03/13 06:54:28;;;;;;;1999.90;999.90;;;8.20;99.90;;;;;;5045157;28;20173;-73
2022/03/13 06:56:54;;;;;;;1999.90;999.90;;;8.30;99.90;;;;;;5045861;28;20435;-73
2022/03/13 06:59:20;;;;;;;1999.90;999.90;;;8.40;99.90;;;;;;5040175;28;20198;-72
2022/03/13 07:01:45;;;;;;;1999.90;999.90;;;8.30;99.90;;;;;;5033177;28;20200;-72
2022/03/13 07:04:12;;;;;;;1999.90;999.90;;;8.30;99.90;;;;;;5032891;28;20547;-73
2022/03/13 07:06:38;;;;;;;1999.90;999.90;;;8.30;99.90;;;;;;5033171;28;20172;-73
2022/03/13 07:09:04;;;;;;;1999.90;999.90;;;8.40;99.90;;;;;;5043960;28;20477;-73
2022/03/13 07:11:32;;;;;;;1999.90;999.90;;;8.40;99.90;;;;;;5038468;28;20453;-73
2022/03/13 07:13:58;;;;;;;1999.90;999.90;;;8.40;99.90;;;;;;5032800;28;20169;-73
2022/03/13 07:16:24;;;;;;;1999.90;999.90;;;8.40;99.90;;;;;;5032731;28;20758;-73
2022/03/13 07:18:50;;;;;;;1999.90;999.90;;;8.40;99.90;;;;;;5032770;28;20852;-73
2022/03/13 07:21:15;;;;;;;1999.90;999.90;;;8.40;99.90;;;;;;5032647;28;20439;-73
2022/03/13 07:23:41;;;;;;;1999.90;999.90;;;8.40;99.90;;;;;;5032585;28;20623;-74
2022/03/13 07:26:07;;;;;;;1999.90;999.90;;;8.50;99.90;;;;;;5032253;28;20166;-73
2022/03/13 07:28:32;;;;;;;1999.90;999.90;;;8.60;99.90;;;;;;5032612;28;20166;-73
2022/03/13 07:30:58;;;;;;;1999.90;999.90;;;8.70;99.90;;;;;;5042704;28;20458;-73
2022/03/13 07:33:24;;;;;;;1999.90;999.90;;;8.80;99.90;;;;;;5044621;28;20185;-73
2022/03/13 07:35:50;;;;;;;1999.90;999.90;;;8.90;99.90;;;;;;5023418;28;20542;-73
2022/03/13 07:38:16;;;;;;;1999.90;999.90;;;9.00;99.90;;;;;;5032779;28;20491;-73
2022/03/13 07:40:43;;;;;;;1999.90;999.90;;;9.10;99.90;;;;;;5032504;28;20471;-73
2022/03/13 07:43:09;;;;;;;1999.90;999.90;;;9.30;99.90;;;;;;5034967;28;20678;-73
2022/03/13 07:45:35;;;;;;;1999.90;999.90;;;9.40;99.90;;;;;;5041990;28;20890;-73
2022/03/13 07:48:01;;;;;;;1999.90;999.90;;;9.60;99.90;;;;;;5037720;28;20409;-73
2022/03/13 07:50:30;;;;;;;1999.90;999.90;;;9.70;99.20;;;;;;5032909;28;20715;-73
2022/03/13 07:52:56;;;;;;;1999.90;999.90;;;9.80;98.80;;;;;;5033159;28;20175;-73
2022/03/13 07:55:24;;;;;;;1999.90;999.90;;;9.80;98.40;;;;;;5037901;28;20415;-73
2022/03/13 07:57:50;;;;;;;1999.90;999.90;;;9.70;97.10;;;;;;5043170;28;20425;-73
2022/03/13 08:00:17;;;;;;;1999.90;999.90;;;9.70;97.80;;;;;;5042028;28;20464;-73
2022/03/13 08:02:46;;;;;;;1999.90;999.90;;;9.80;98.20;;;;;;5039316;28;20417;-73
2022/03/13 08:05:13;;;;;;;1999.90;999.90;;;9.80;98.60;;;;;;5032347;28;20429;-73
2022/03/13 08:07:39;;;;;;;1999.90;999.90;;;9.90;98.10;;;;;;5036039;28;20410;-73
2022/03/13 08:10:05;;;;;;;1999.90;999.90;;;10.00;98.30;;;;;;5043326;28;20459;-73
2022/03/13 08:12:31;;;;;;;1999.90;999.90;;;10.10;98.70;;;;;;5041481;28;20410;-73
2022/03/13 08:14:56;;;;;;;1999.90;999.90;;;10.20;98.60;;;;;;5039721;28;20414;-73
2022/03/13 08:17:22;;;;;;;1999.90;999.90;;;10.30;98.40;;;;;;5035199;28;20167;-73
2022/03/13 08:19:47;;;;;;;1999.90;999.90;;;10.40;97.50;;;;;;5031709;28;20719;-73
2022/03/13 08:22:13;;;;;;;1999.90;999.90;;;10.60;96.70;;;;;;5031804;28;20162;-73
2022/03/13 08:24:40;;;;;;;1999.90;999.90;;;10.70;96.30;;;;;;5031807;28;20688;-73
2022/03/13 08:27:06;;;;;;;1999.90;999.90;;;10.70;95.70;;;;;;5040995;28;20172;-73
2022/03/13 08:29:32;;;;;;;1999.90;999.90;;;10.60;96.10;;;;;;5032637;28;20423;-73
2022/03/13 08:31:57;;;;;;;1999.90;999.90;;;10.70;96.20;;;;;;5032265;28;20175;-73
2022/03/13 08:34:23;;;;;;;1999.90;999.90;;;10.70;94.90;;;;;;5031844;28;20258;-72
2022/03/13 08:36:50;;;;;;;1999.90;999.90;;;10.60;95.00;;;;;;5032181;28;20164;-73
2022/03/13 08:39:16;;;;;;;1999.90;999.90;;;10.60;93.80;;;;;;5031721;28;20975;-73
2022/03/13 08:41:41;;;;;;;1999.90;999.90;;;10.40;92.30;;;;;;5032015;28;20463;-73
2022/03/13 08:44:08;;;;;;;1999.90;999.90;;;10.40;92.40;;;;;;5031679;28;20625;-73
2022/03/13 08:46:34;;;;;;;1999.90;999.90;;;10.30;91.70;;;;;;5031984;28;20687;-73
2022/03/13 08:49:00;;;;;;;1999.90;999.90;;;10.40;91.40;;;;;;5031888;28;20977;-73
2022/03/13 08:51:27;;;;;;;1999.90;999.90;;;10.40;90.70;;;;;;5031651;28;20504;-73
2022/03/13 08:53:53;;;;;;;1999.90;999.90;;;10.40;91.70;;;;;;5031571;28;20175;-73
2022/03/13 08:56:20;;;;;;;1999.90;999.90;;;10.50;90.80;;;;;;5034289;28;20413;-73
2022/03/13 08:58:47;;;;;;;1999.90;999.90;;;10.60;90.60;;;;;;5039998;28;20412;-73
2022/03/13 09:01:14;;;;;;;1999.90;999.90;;;10.70;90.70;;;;;;5039049;28;20453;-73
2022/03/13 09:03:40;;;;;;;1999.90;999.90;;;10.80;91.00;;;;;;5039725;28;20945;-73
2022/03/13 09:06:05;;;;;;;1999.90;999.90;;;10.80;91.20;;;;;;5040392;28;20410;-73
2022/03/13 09:08:31;;;;;;;1999.90;999.90;;;10.90;90.20;;;;;;5041945;28;20167;-73
2022/03/13 09:10:56;;;;;;;1999.90;999.90;;;11.00;87.60;;;;;;5041442;28;20200;-73
2022/03/13 09:13:22;;;;;;;1999.90;999.90;;;11.10;88.10;;;;;;5042149;28;20176;-73
2022/03/13 09:15:49;;;;;;;1999.90;999.90;;;11.10;89.80;;;;;;5041772;28;20175;-73
2022/03/13 09:18:14;;;;;;;1999.90;999.90;;;11.40;89.10;;;;;;5041506;28;20416;-73
2022/03/13 09:20:40;;;;;;;1999.90;999.90;;;11.60;87.20;;;;;;5032057;28;20455;-73
2022/03/13 09:23:06;;;;;;;1999.90;999.90;;;11.80;87.70;;;;;;5033734;28;20622;-73
2022/03/13 09:25:34;;;;;;;1999.90;999.90;;;12.00;86.90;;;;;;5034682;28;20403;-73
2022/03/13 09:28:00;;;;;;;1999.90;999.90;;;12.10;86.90;;;;;;5034946;28;20413;-73
2022/03/13 09:30:26;;;;;;;1999.90;999.90;;;12.20;83.20;;;;;;5034808;28;20470;-73
2022/03/13 09:32:52;;;;;;;1999.90;999.90;;;12.30;82.80;;;;;;5034705;28;20407;-73
2022/03/13 09:35:17;;;;;;;1999.90;999.90;;;12.40;83.10;;;;;;5034497;28;20539;-73
2022/03/13 09:37:44;;;;;;;1999.90;999.90;;;12.50;85.00;;;;;;5034844;28;20185;-73
2022/03/13 09:40:10;;;;;;;1999.90;999.90;;;12.60;85.70;;;;;;5034370;28;20213;-73
2022/03/13 09:42:37;;;;;;;1999.90;999.90;;;12.60;81.70;;;;;;5034636;28;20442;-73
2022/03/13 09:45:03;;;;;;;1999.90;999.90;;;12.70;82.70;;;;;;5034219;28;20813;-73
2022/03/13 09:47:29;;;;;;;1999.90;999.90;;;12.70;82.50;;;;;;5034376;28;20495;-73
2022/03/13 09:49:55;;;;;;;1999.90;999.90;;;12.70;80.50;;;;;;5034234;28;20596;-73
2022/03/13 09:52:22;;;;;;;1999.90;999.90;;;12.60;81.00;;;;;;5031053;28;20435;-73
2022/03/13 09:54:47;;;;;;;1999.90;999.90;;;12.70;81.00;;;;;;5033641;28;21075;-72
2022/03/13 09:57:14;;;;;;;1999.90;999.90;;;12.70;78.10;;;;;;5034105;28;20404;-73
2022/03/13 09:59:40;;;;;;;1999.90;999.90;;;12.80;82.90;;;;;;5033581;28;20182;-73
2022/03/13 10:02:07;;;;;;;1999.90;999.90;;;12.80;80.20;;;;;;5035096;28;20462;-73
2022/03/13 10:04:33;;;;;;;1999.90;999.90;;;12.90;79.50;;;;;;5042819;28;20411;-73
2022/03/13 10:07:05;;;;;;;1999.90;999.90;;;12.90;78.00;;;;;;5025379;28;20450;-73
2022/03/13 10:09:31;;;;;;;1999.90;999.90;;;13.00;77.40;;;;;;5038588;28;20431;-73
2022/03/13 10:12:22;;;;;;;1999.90;999.90;;;13.10;80.30;;;;;;5033983;28;21199;-73
2022/03/13 10:15:03;;;;;;;1999.90;999.90;;;13.10;77.30;;;;;;5029319;28;20424;-73
2022/03/13 10:17:31;;;;;;;1999.90;999.90;;;13.30;76.70;;;;;;5034149;28;20871;-72
2022/03/13 10:20:11;;;;;;;1999.90;999.90;;;13.40;76.60;;;;;;5033648;28;20513;-73
2022/03/13 10:22:37;;;;;;;1999.90;999.90;;;13.50;78.70;;;;;;5033738;28;20498;-73
2022/03/13 10:25:03;;;;;;;1999.90;999.90;;;13.60;76.40;;;;;;5033686;28;20514;-73
2022/03/13 10:27:32;;;;;;;1999.90;999.90;;;13.70;74.00;;;;;;5032787;28;20215;-73
2022/03/13 10:30:07;;;;;;;1999.90;999.90;;;13.70;73.70;;;;;;5033124;28;20425;-73
2022/03/13 10:32:32;;;;;;;1999.90;999.90;;;13.80;80.30;;;;;;5041419;28;21050;-73
2022/03/13 10:34:58;;;;;;;1999.90;999.90;;;14.10;79.70;;;;;;5044688;28;20413;-73
2022/03/13 10:37:43;;;;;;;1999.90;999.90;;;14.10;73.60;;;;;;5026028;28;20407;-73
2022/03/13 10:40:13;;;;;;;1999.90;999.90;;;14.20;74.20;;;;;;5041754;28;20211;-73
2022/03/13 10:42:43;;;;;;;1999.90;999.90;;;14.40;74.30;;;;;;5033021;28;20979;-73
2022/03/13 10:45:31;;;;;;;1999.90;999.90;;;14.40;73.60;;;;;;5033357;28;20414;-73
2022/03/13 10:48:18;;;;;;;1999.90;999.90;;;14.60;77.20;;;;;;5033480;28;20411;-73
2022/03/13 10:50:47;;;;;;;1999.90;999.90;;;14.80;74.60;;;;;;5029187;28;20445;-72
2022/03/13 10:53:13;;;;;;;1999.90;999.90;;;14.80;73.70;;;;;;5032111;28;20438;-73
2022/03/13 10:55:41;;;;;;;1999.90;999.90;;;15.00;73.50;;;;;;5031942;28;20404;-72
2022/03/13 10:58:07;;;;;;;1999.90;999.90;;;15.20;70.80;;;;;;5031973;28;20463;-72
2022/03/13 11:00:34;;;;;;;1999.90;999.90;;;15.20;73.30;;;;;;5032690;28;20458;-72
2022/03/13 11:03:14;;;;;;;1999.90;999.90;;;15.40;71.60;;;;;;5030130;28;20905;-73
2022/03/13 11:05:40;;;;;;;1999.90;999.90;;;15.50;76.40;;;;;;5032720;28;20761;-72
2022/03/13 11:08:07;;;;;;;1999.90;999.90;;;15.80;75.00;;;;;;5032782;28;20411;-72
2022/03/13 11:10:36;;;;;;;1999.90;999.90;;;16.00;70.10;;;;;;5031759;28;20439;-73
2022/03/13 11:13:04;;;;;;;1999.90;999.90;;;16.20;75.10;;;;;;5032848;28;20517;-73
2022/03/13 11:15:30;;;;;;;1999.90;999.90;;;16.30;70.90;;;;;;5032813;28;20430;-73
2022/03/13 11:17:57;;;;;;;1999.90;999.90;;;16.50;72.50;;;;;;5031819;28;21169;-73
2022/03/13 11:20:24;;;;;;;1999.90;999.90;;;16.50;69.60;;;;;;5032494;28;20487;-73
2022/03/13 11:22:50;;;;;;;1999.90;999.90;;;16.70;70.50;;;;;;5032192;28;20411;-73
2022/03/13 11:25:16;;;;;;;1999.90;999.90;;;16.70;68.40;;;;;;5031666;28;20408;-73
2022/03/13 11:27:45;;;;;;;1999.90;999.90;;;16.70;71.00;;;;;;5032834;28;20268;-73
2022/03/13 11:30:14;;;;;;;1999.90;999.90;;;16.70;69.30;;;;;;5032109;28;20456;-73
2022/03/13 11:32:46;;;;;;;1999.90;999.90;;;16.70;67.50;;;;;;5031646;28;20759;-73
2022/03/13 11:35:15;;;;;;;1999.90;999.90;;;16.80;66.10;;;;;;5031752;28;20406;-73
2022/03/13 11:37:42;;;;;;;1999.90;999.90;;;16.90;65.80;;;;;;5031929;28;20413;-73
2022/03/13 11:40:10;;;;;;;1999.90;999.90;;;17.00;65.40;;;;;;5031086;28;20807;-73
2022/03/13 11:43:03;;;;;;;1999.90;999.90;;;17.10;69.70;;;;;;5031561;28;20499;-73
2022/03/13 11:45:34;;;;;;;1999.90;999.90;;;17.20;69.20;;;;;;5030751;28;20403;-73
2022/03/13 11:48:12;;;;;;;1999.90;999.90;;;17.70;62.90;;;;;;5031327;28;20412;-73
2022/03/13 11:50:55;;;;;;;1999.90;999.90;;;18.10;62.50;;;;;;5031840;28;20517;-73
2022/03/13 11:53:26;;;;;;;1999.90;999.90;;;19.00;60.90;;;;;;5031781;28;20423;-73
2022/03/13 11:55:57;;;;;;;1999.90;999.90;;;19.90;57.40;;;;;;5030960;28;20430;-73
2022/03/13 11:58:51;;;;;;;1999.90;999.90;;;20.80;54.60;;;;;;5031741;28;20491;-73
2022/03/13 12:01:20;;;;;;;1999.90;999.90;;;21.40;48.90;;;;;;5031601;28;20492;-73
2022/03/13 12:04:07;;;;;;;1999.90;999.90;;;21.90;45.10;;;;;;5030914;28;20413;-71
2022/03/13 12:06:39;;;;;;;1999.90;999.90;;;22.20;42.10;;;;;;5018519;28;20425;-70
2022/03/13 12:09:08;;;;;;;1999.90;999.90;;;22.70;40.90;;;;;;5031286;28;20392;-70